sensor_id;sensor_type;location;lat;lon;timestamp;pressure;altitude;pressure_sealevel;temperature;humidity
15444;BME280;7822;48.146;11.576;2023-01-25T00:00:45;96499.13;;;14.64;64.29
15444;BME280;7822;48.146;11.576;2023-01-25T00:03:13;96488.81;;;14.62;64.09
15444;BME280;7822;48.146;11.576;2023-01-25T00:05:41;96493.06;;;14.63;63.88
15444;BME280;7822;48.146;11.576;2023-01-25T00:08:08;96501.75;;;14.64;63.85
15444;BME280;7822;48.146;11.576;2023-01-25T00:10:36;96499.34;;;14.61;62.44
15444;BME280;7822;48.146;11.576;2023-01-25T00:13:04;96488.53;;;14.54;58.76
15444;BME280;7822;48.146;11.576;2023-01-25T00:15:31;96498.41;;;14.51;56.85
15444;BME280;7822;48.146;11.576;2023-01-25T00:18:01;96493.66;;;14.45;56.36
15444;BME280;7822;48.146;11.576;2023-01-25T00:20:28;96489.22;;;14.45;56.71
15444;BME280;7822;48.146;11.576;2023-01-25T00:22:56;96491.38;;;14.40;54.68
15444;BME280;7822;48.146;11.576;2023-01-25T00:25:23;96498.59;;;14.37;53.74
15444;BME280;7822;48.146;11.576;2023-01-25T00:27:51;96496.94;;;14.36;54.02
15444;BME280;7822;48.146;11.576;2023-01-25T00:30:19;96489.19;;;14.34;53.68
15444;BME280;7822;48.146;11.576;2023-01-25T00:32:52;96489.94;;;14.36;53.98
15444;BME280;7822;48.146;11.576;2023-01-25T00:35:22;96493.50;;;14.35;55.37
15444;BME280;7822;48.146;11.576;2023-01-25T00:37:51;96493.28;;;14.38;56.29
15444;BME280;7822;48.146;11.576;2023-01-25T00:40:19;96485.44;;;14.38;56.67
15444;BME280;7822;48.146;11.576;2023-01-25T00:42:47;96481.75;;;14.41;57.10
15444;BME280;7822;48.146;11.576;2023-01-25T00:45:14;96485.09;;;14.43;57.36
15444;BME280;7822;48.146;11.576;2023-01-25T00:47:42;96486.75;;;14.44;57.63
15444;BME280;7822;48.146;11.576;2023-01-25T00:50:10;96480.69;;;14.43;57.93
15444;BME280;7822;48.146;11.576;2023-01-25T00:52:39;96480.59;;;14.45;58.18
15444;BME280;7822;48.146;11.576;2023-01-25T00:55:08;96484.00;;;14.45;58.29
15444;BME280;7822;48.146;11.576;2023-01-25T00:57:36;96471.91;;;14.44;58.54
15444;BME280;7822;48.146;11.576;2023-01-25T01:00:05;96477.84;;;14.46;58.92
15444;BME280;7822;48.146;11.576;2023-01-25T01:02:33;96489.13;;;14.47;59.32
15444;BME280;7822;48.146;11.576;2023-01-25T01:05:00;96481.31;;;14.47;59.26
15444;BME280;7822;48.146;11.576;2023-01-25T01:07:28;96484.75;;;14.47;59.45
15444;BME280;7822;48.146;11.576;2023-01-25T01:09:57;96483.78;;;14.48;59.82
15444;BME280;7822;48.146;11.576;2023-01-25T01:12:25;96477.72;;;14.48;59.58
15444;BME280;7822;48.146;11.576;2023-01-25T01:14:53;96488.06;;;14.49;59.77
15444;BME280;7822;48.146;11.576;2023-01-25T01:17:21;96490.69;;;14.49;59.66
15444;BME280;7822;48.146;11.576;2023-01-25T01:19:49;96485.47;;;14.49;59.83
15444;BME280;7822;48.146;11.576;2023-01-25T01:22:17;96489.59;;;14.52;59.73
15444;BME280;7822;48.146;11.576;2023-01-25T01:24:46;96490.56;;;14.51;60.17
15444;BME280;7822;48.146;11.576;2023-01-25T01:27:15;96479.28;;;14.50;60.46
15444;BME280;7822;48.146;11.576;2023-01-25T01:29:43;96492.22;;;14.52;60.33
15444;BME280;7822;48.146;11.576;2023-01-25T01:32:10;96474.78;;;14.52;60.19
15444;BME280;7822;48.146;11.576;2023-01-25T01:34:38;96473.22;;;14.50;60.48
15444;BME280;7822;48.146;11.576;2023-01-25T01:37:06;96476.53;;;14.52;60.58
15444;BME280;7822;48.146;11.576;2023-01-25T01:39:33;96467.78;;;14.53;60.87
15444;BME280;7822;48.146;11.576;2023-01-25T01:42:01;96467.78;;;14.53;60.64
15444;BME280;7822;48.146;11.576;2023-01-25T01:44:45;96461.72;;;14.52;60.96
15444;BME280;7822;48.146;11.576;2023-01-25T01:47:17;96469.53;;;14.52;60.61
15444;BME280;7822;48.146;11.576;2023-01-25T01:49:50;96469.44;;;14.54;60.63
15444;BME280;7822;48.146;11.576;2023-01-25T01:52:22;96466.94;;;14.52;60.97
15444;BME280;7822;48.146;11.576;2023-01-25T01:54:55;96472.16;;;14.52;60.81
15444;BME280;7822;48.146;11.576;2023-01-25T01:57:25;96469.53;;;14.52;60.89
15444;BME280;7822;48.146;11.576;2023-01-25T02:00:00;96469.44;;;14.54;61.09
15444;BME280;7822;48.146;11.576;2023-01-25T02:02:29;96467.78;;;14.53;61.02
15444;BME280;7822;48.146;11.576;2023-01-25T02:04:59;96477.28;;;14.54;61.07
15444;BME280;7822;48.146;11.576;2023-01-25T02:07:30;96466.84;;;14.54;60.82
15444;BME280;7822;48.146;11.576;2023-01-25T02:10:02;96468.63;;;14.53;61.21
15444;BME280;7822;48.146;11.576;2023-01-25T02:12:31;96472.06;;;14.54;61.26
15444;BME280;7822;48.146;11.576;2023-01-25T02:15:00;96468.50;;;14.55;60.86
15444;BME280;7822;48.146;11.576;2023-01-25T02:17:30;96472.06;;;14.54;61.10
15444;BME280;7822;48.146;11.576;2023-01-25T02:20:02;96468.50;;;14.55;61.00
15444;BME280;7822;48.146;11.576;2023-01-25T02:22:39;96462.44;;;14.54;61.25
15444;BME280;7822;48.146;11.576;2023-01-25T02:25:13;96465.03;;;14.54;61.46
15444;BME280;7822;48.146;11.576;2023-01-25T02:27:45;96459.81;;;14.54;61.44
15444;BME280;7822;48.146;11.576;2023-01-25T02:30:16;96459.81;;;14.54;61.35
15444;BME280;7822;48.146;11.576;2023-01-25T02:32:44;96457.19;;;14.54;61.38
15444;BME280;7822;48.146;11.576;2023-01-25T02:35:18;96469.31;;;14.55;61.57
15444;BME280;7822;48.146;11.576;2023-01-25T02:37:45;96460.53;;;14.56;61.42
15444;BME280;7822;48.146;11.576;2023-01-25T02:40:15;96459.81;;;14.54;61.38
15444;BME280;7822;48.146;11.576;2023-01-25T02:42:44;96462.34;;;14.56;61.48
15444;BME280;7822;48.146;11.576;2023-01-25T02:45:14;96456.28;;;14.55;61.30
15444;BME280;7822;48.146;11.576;2023-01-25T02:47:43;96461.50;;;14.55;61.53
15444;BME280;7822;48.146;11.576;2023-01-25T02:50:10;96450.22;;;14.55;61.65
15444;BME280;7822;48.146;11.576;2023-01-25T02:52:41;96450.22;;;14.55;61.81
15444;BME280;7822;48.146;11.576;2023-01-25T02:55:09;96445.00;;;14.55;61.56
15444;BME280;7822;48.146;11.576;2023-01-25T02:57:38;96448.44;;;14.55;61.74
15444;BME280;7822;48.146;11.576;2023-01-25T03:00:07;96446.66;;;14.56;61.80
15444;BME280;7822;48.146;11.576;2023-01-25T03:02:34;96440.59;;;14.55;61.69
15444;BME280;7822;48.146;11.576;2023-01-25T03:05:03;96437.16;;;14.55;61.79
15444;BME280;7822;48.146;11.576;2023-01-25T03:07:31;96441.44;;;14.56;61.56
15444;BME280;7822;48.146;11.576;2023-01-25T03:09:59;96441.44;;;14.56;61.91
15444;BME280;7822;48.146;11.576;2023-01-25T03:12:26;96444.06;;;14.56;61.56
15444;BME280;7822;48.146;11.576;2023-01-25T03:14:55;96444.84;;;14.56;61.61
15444;BME280;7822;48.146;11.576;2023-01-25T03:17:23;96439.63;;;14.56;61.70
15444;BME280;7822;48.146;11.576;2023-01-25T03:19:51;96441.31;;;14.57;61.63
15444;BME280;7822;48.146;11.576;2023-01-25T03:22:19;96431.00;;;14.56;61.63
15444;BME280;7822;48.146;11.576;2023-01-25T03:24:47;96431.00;;;14.56;61.54
15444;BME280;7822;48.146;11.576;2023-01-25T03:27:14;96429.19;;;14.56;61.85
15444;BME280;7822;48.146;11.576;2023-01-25T03:29:44;96426.72;;;14.55;62.00
15444;BME280;7822;48.146;11.576;2023-01-25T03:32:13;96431.81;;;14.56;62.03
15444;BME280;7822;48.146;11.576;2023-01-25T03:34:41;96421.34;;;14.56;61.90
15444;BME280;7822;48.146;11.576;2023-01-25T03:37:08;96423.97;;;14.56;62.04
15444;BME280;7822;48.146;11.576;2023-01-25T03:39:36;96430.03;;;14.57;62.07
15444;BME280;7822;48.146;11.576;2023-01-25T03:42:04;96423.97;;;14.56;61.79
15444;BME280;7822;48.146;11.576;2023-01-25T03:44:32;96427.41;;;14.57;62.01
15444;BME280;7822;48.146;11.576;2023-01-25T03:46:59;96432.63;;;14.57;62.12
15444;BME280;7822;48.146;11.576;2023-01-25T03:49:28;96429.19;;;14.56;62.25
15444;BME280;7822;48.146;11.576;2023-01-25T03:51:56;96417.94;;;14.56;61.81
15444;BME280;7822;48.146;11.576;2023-01-25T03:54:24;96423.97;;;14.56;61.85
15444;BME280;7822;48.146;11.576;2023-01-25T03:56:51;96415.31;;;14.56;62.05
15444;BME280;7822;48.146;11.576;2023-01-25T03:59:19;96415.31;;;14.56;62.29
15444;BME280;7822;48.146;11.576;2023-01-25T04:01:47;96417.94;;;14.56;62.49
15444;BME280;7822;48.146;11.576;2023-01-25T04:04:15;96410.91;;;14.56;62.39
15444;BME280;7822;48.146;11.576;2023-01-25T04:06:44;96423.03;;;14.57;62.25
15444;BME280;7822;48.146;11.576;2023-01-25T04:09:11;96420.44;;;14.57;61.90
15444;BME280;7822;48.146;11.576;2023-01-25T04:11:40;96420.44;;;14.57;62.13
15444;BME280;7822;48.146;11.576;2023-01-25T04:14:09;96419.59;;;14.57;62.12
15444;BME280;7822;48.146;11.576;2023-01-25T04:16:37;96419.59;;;14.57;62.20
15444;BME280;7822;48.146;11.576;2023-01-25T04:19:05;96415.19;;;14.57;62.22
15444;BME280;7822;48.146;11.576;2023-01-25T04:21:32;96419.59;;;14.57;61.88
15444;BME280;7822;48.146;11.576;2023-01-25T04:24:02;96417.81;;;14.57;62.14
15444;BME280;7822;48.146;11.576;2023-01-25T04:26:30;96407.38;;;14.57;62.41
15444;BME280;7822;48.146;11.576;2023-01-25T04:28:57;96404.75;;;14.57;62.07
15444;BME280;7822;48.146;11.576;2023-01-25T04:31:25;96405.69;;;14.56;62.17
15444;BME280;7822;48.146;11.576;2023-01-25T04:33:54;96403.06;;;14.56;62.21
15444;BME280;7822;48.146;11.576;2023-01-25T04:36:21;96404.75;;;14.57;62.23
15444;BME280;7822;48.146;11.576;2023-01-25T04:38:49;96407.38;;;14.57;62.29
15444;BME280;7822;48.146;11.576;2023-01-25T04:41:18;96416.97;;;14.57;62.36
15444;BME280;7822;48.146;11.576;2023-01-25T04:43:46;96409.13;;;14.57;62.57
15444;BME280;7822;48.146;11.576;2023-01-25T04:46:13;96403.91;;;14.57;62.02
15444;BME280;7822;48.146;11.576;2023-01-25T04:48:42;96390.84;;;14.57;62.20
15444;BME280;7822;48.146;11.576;2023-01-25T04:51:10;96391.69;;;14.57;62.06
15444;BME280;7822;48.146;11.576;2023-01-25T04:53:38;96388.25;;;14.57;62.13
15444;BME280;7822;48.146;11.576;2023-01-25T04:56:06;96383.88;;;14.57;62.02
15444;BME280;7822;48.146;11.576;2023-01-25T04:58:35;96384.81;;;14.56;62.46
15444;BME280;7822;48.146;11.576;2023-01-25T05:01:03;96387.31;;;14.58;62.61
15444;BME280;7822;48.146;11.576;2023-01-25T05:03:31;96383.88;;;14.57;62.80
15444;BME280;7822;48.146;11.576;2023-01-25T05:05:59;96376.88;;;14.58;62.70
15444;BME280;7822;48.146;11.576;2023-01-25T05:08:27;96369.84;;;14.58;62.67
15444;BME280;7822;48.146;11.576;2023-01-25T05:10:54;96371.50;;;14.59;62.50
15444;BME280;7822;48.146;11.576;2023-01-25T05:13:22;96369.75;;;14.60;62.55
15444;BME280;7822;48.146;11.576;2023-01-25T05:15:51;96374.84;;;14.61;62.67
15444;BME280;7822;48.146;11.576;2023-01-25T05:18:19;96379.22;;;14.61;62.46
15444;BME280;7822;48.146;11.576;2023-01-25T05:20:46;96375.69;;;14.62;62.65
15444;BME280;7822;48.146;11.576;2023-01-25T05:23:14;96361.78;;;14.61;62.42
15444;BME280;7822;48.146;11.576;2023-01-25T05:25:42;96367.00;;;14.61;62.66
15444;BME280;7822;48.146;11.576;2023-01-25T05:28:27;96362.63;;;14.62;62.81
15444;BME280;7822;48.146;11.576;2023-01-25T05:30:56;96363.47;;;14.62;62.43
15444;BME280;7822;48.146;11.576;2023-01-25T05:33:24;96360.84;;;14.62;62.26
15444;BME280;7822;48.146;11.576;2023-01-25T05:35:52;96359.03;;;14.63;62.41
15444;BME280;7822;48.146;11.576;2023-01-25T05:38:21;96359.03;;;14.63;62.74
15444;BME280;7822;48.146;11.576;2023-01-25T05:40:49;96363.47;;;14.62;62.79
15444;BME280;7822;48.146;11.576;2023-01-25T05:43:16;96368.69;;;14.62;62.58
15444;BME280;7822;48.146;11.576;2023-01-25T05:45:51;96366.06;;;14.62;62.87
15444;BME280;7822;48.146;11.576;2023-01-25T05:48:20;96368.56;;;14.64;62.44
15444;BME280;7822;48.146;11.576;2023-01-25T05:50:47;96370.22;;;14.65;62.79
15444;BME280;7822;48.146;11.576;2023-01-25T05:53:15;96368.56;;;14.64;62.71
15444;BME280;7822;48.146;11.576;2023-01-25T05:55:43;96368.56;;;14.64;62.79
15444;BME280;7822;48.146;11.576;2023-01-25T05:58:10;96371.16;;;14.64;62.72
15444;BME280;7822;48.146;11.576;2023-01-25T06:00:38;96371.16;;;14.64;62.76
15444;BME280;7822;48.146;11.576;2023-01-25T06:03:06;96368.56;;;14.64;62.61
15444;BME280;7822;48.146;11.576;2023-01-25T06:05:35;96365.09;;;14.63;62.81
15444;BME280;7822;48.146;11.576;2023-01-25T06:08:03;96362.50;;;14.63;62.79
15444;BME280;7822;48.146;11.576;2023-01-25T06:10:30;96358.94;;;14.64;62.90
15444;BME280;7822;48.146;11.576;2023-01-25T06:12:58;96356.34;;;14.64;62.79
15444;BME280;7822;48.146;11.576;2023-01-25T06:15:26;96357.25;;;14.63;62.64
15444;BME280;7822;48.146;11.576;2023-01-25T06:17:54;96356.34;;;14.64;62.80
15444;BME280;7822;48.146;11.576;2023-01-25T06:20:22;96357.25;;;14.63;62.54
15444;BME280;7822;48.146;11.576;2023-01-25T06:22:51;96345.88;;;14.64;62.75
15444;BME280;7822;48.146;11.576;2023-01-25T06:25:19;96345.88;;;14.64;62.97
15444;BME280;7822;48.146;11.576;2023-01-25T06:27:46;96347.53;;;14.65;62.80
15444;BME280;7822;48.146;11.576;2023-01-25T06:30:14;96350.13;;;14.65;62.69
15444;BME280;7822;48.146;11.576;2023-01-25T06:32:42;96341.38;;;14.66;62.80
15444;BME280;7822;48.146;11.576;2023-01-25T06:35:10;96338.75;;;14.66;62.92
15444;BME280;7822;48.146;11.576;2023-01-25T06:37:38;96343.13;;;14.66;62.97
15444;BME280;7822;48.146;11.576;2023-01-25T06:40:08;96338.75;;;14.66;62.84
15444;BME280;7822;48.146;11.576;2023-01-25T06:42:36;96338.75;;;14.66;63.01
15444;BME280;7822;48.146;11.576;2023-01-25T06:45:04;96336.16;;;14.66;63.22
15444;BME280;7822;48.146;11.576;2023-01-25T06:47:33;96340.41;;;14.67;63.01
15444;BME280;7822;48.146;11.576;2023-01-25T06:50:00;96335.19;;;14.67;63.04
15444;BME280;7822;48.146;11.576;2023-01-25T06:52:28;96341.25;;;14.68;62.87
15444;BME280;7822;48.146;11.576;2023-01-25T06:54:57;96339.47;;;14.68;63.08
15444;BME280;7822;48.146;11.576;2023-01-25T06:57:26;96331.63;;;14.68;62.93
15444;BME280;7822;48.146;11.576;2023-01-25T06:59:55;96331.63;;;14.68;62.78
15444;BME280;7822;48.146;11.576;2023-01-25T07:02:22;96328.03;;;14.69;63.07
15444;BME280;7822;48.146;11.576;2023-01-25T07:04:50;96322.13;;;14.67;62.91
15444;BME280;7822;48.146;11.576;2023-01-25T07:07:18;96304.69;;;14.68;62.91
15444;BME280;7822;48.146;11.576;2023-01-25T07:09:45;96309.06;;;14.67;62.82
15444;BME280;7822;48.146;11.576;2023-01-25T07:12:13;96309.91;;;14.68;63.09
15444;BME280;7822;48.146;11.576;2023-01-25T07:14:42;96303.84;;;14.67;63.04
15444;BME280;7822;48.146;11.576;2023-01-25T07:17:09;96306.56;;;14.66;63.04
15444;BME280;7822;48.146;11.576;2023-01-25T07:19:37;96306.56;;;14.66;63.01
15444;BME280;7822;48.146;11.576;2023-01-25T07:22:05;96301.34;;;14.66;63.32
15444;BME280;7822;48.146;11.576;2023-01-25T07:24:32;96302.31;;;14.65;63.24
15444;BME280;7822;48.146;11.576;2023-01-25T07:27:00;96303.13;;;14.65;63.15
15444;BME280;7822;48.146;11.576;2023-01-25T07:29:28;96322.25;;;14.66;63.08
15444;BME280;7822;48.146;11.576;2023-01-25T07:31:57;96306.56;;;14.66;63.07
15444;BME280;7822;48.146;11.576;2023-01-25T07:34:25;96306.44;;;14.67;63.32
15444;BME280;7822;48.146;11.576;2023-01-25T07:36:54;96296.84;;;14.68;63.08
15444;BME280;7822;48.146;11.576;2023-01-25T07:39:21;96296.84;;;14.68;63.16
15444;BME280;7822;48.146;11.576;2023-01-25T07:41:49;96308.25;;;14.67;63.12
15444;BME280;7822;48.146;11.576;2023-01-25T07:44:20;96308.13;;;14.68;63.02
15444;BME280;7822;48.146;11.576;2023-01-25T07:46:48;96309.91;;;14.68;63.00
15444;BME280;7822;48.146;11.576;2023-01-25T07:49:17;96312.50;;;14.68;63.15
15444;BME280;7822;48.146;11.576;2023-01-25T07:51:45;96306.34;;;14.69;63.19
15444;BME280;7822;48.146;11.576;2023-01-25T07:54:13;96310.72;;;14.68;63.01
15444;BME280;7822;48.146;11.576;2023-01-25T07:56:40;96310.72;;;14.68;63.34
15444;BME280;7822;48.146;11.576;2023-01-25T07:59:08;96307.16;;;14.69;63.11
15444;BME280;7822;48.146;11.576;2023-01-25T08:01:38;96306.34;;;14.69;63.14
15444;BME280;7822;48.146;11.576;2023-01-25T08:04:06;96314.19;;;14.69;63.12
15444;BME280;7822;48.146;11.576;2023-01-25T08:06:36;96308.13;;;14.68;63.28
15444;BME280;7822;48.146;11.576;2023-01-25T08:09:07;96310.72;;;14.68;63.01
15444;BME280;7822;48.146;11.576;2023-01-25T08:11:37;96311.66;;;14.67;63.27
15444;BME280;7822;48.146;11.576;2023-01-25T08:14:05;96305.50;;;14.68;63.38
15444;BME280;7822;48.146;11.576;2023-01-25T08:16:33;96314.19;;;14.69;63.39
15444;BME280;7822;48.146;11.576;2023-01-25T08:19:01;96323.78;;;14.68;63.27
15444;BME280;7822;48.146;11.576;2023-01-25T08:21:31;96314.19;;;14.69;63.12
15444;BME280;7822;48.146;11.576;2023-01-25T08:24:02;96314.19;;;14.69;63.51
15444;BME280;7822;48.146;11.576;2023-01-25T08:26:30;96312.38;;;14.69;63.42
15444;BME280;7822;48.146;11.576;2023-01-25T08:28:58;96305.50;;;14.68;63.08
15444;BME280;7822;48.146;11.576;2023-01-25T08:31:28;96310.72;;;14.68;62.96
15444;BME280;7822;48.146;11.576;2023-01-25T08:33:56;96303.84;;;14.67;63.31
15444;BME280;7822;48.146;11.576;2023-01-25T08:36:25;96302.06;;;14.68;63.41
15444;BME280;7822;48.146;11.576;2023-01-25T08:38:54;96302.78;;;14.70;63.28
15444;BME280;7822;48.146;11.576;2023-01-25T08:41:24;96298.50;;;14.69;63.42
15444;BME280;7822;48.146;11.576;2023-01-25T08:43:53;96291.47;;;14.69;63.46
15444;BME280;7822;48.146;11.576;2023-01-25T08:46:23;96299.31;;;14.69;63.32
15444;BME280;7822;48.146;11.576;2023-01-25T08:48:54;96296.72;;;14.69;63.49
15444;BME280;7822;48.146;11.576;2023-01-25T08:51:23;96298.50;;;14.69;63.50
15444;BME280;7822;48.146;11.576;2023-01-25T08:53:51;96291.47;;;14.69;63.71
15444;BME280;7822;48.146;11.576;2023-01-25T08:56:19;96294.09;;;14.69;63.56
15444;BME280;7822;48.146;11.576;2023-01-25T08:58:49;96299.31;;;14.69;63.58
15444;BME280;7822;48.146;11.576;2023-01-25T09:01:18;96294.09;;;14.69;63.77
15444;BME280;7822;48.146;11.576;2023-01-25T09:03:49;96299.31;;;14.69;63.49
15444;BME280;7822;48.146;11.576;2023-01-25T09:06:17;96295.78;;;14.70;63.57
15444;BME280;7822;48.146;11.576;2023-01-25T09:08:46;96287.94;;;14.70;63.30
15444;BME280;7822;48.146;11.576;2023-01-25T09:11:16;96281.88;;;14.70;63.73
15444;BME280;7822;48.146;11.576;2023-01-25T09:13:44;96279.25;;;14.70;63.49
15444;BME280;7822;48.146;11.576;2023-01-25T09:16:16;96275.00;;;14.69;63.61
15444;BME280;7822;48.146;11.576;2023-01-25T09:18:45;96274.88;;;14.70;63.27
15444;BME280;7822;48.146;11.576;2023-01-25T09:21:17;96267.16;;;14.69;63.58
15444;BME280;7822;48.146;11.576;2023-01-25T09:23:46;96267.97;;;14.69;63.55
15444;BME280;7822;48.146;11.576;2023-01-25T09:26:30;96280.94;;;14.71;63.55
15444;BME280;7822;48.146;11.576;2023-01-25T09:28:58;96279.25;;;14.70;63.35
15444;BME280;7822;48.146;11.576;2023-01-25T09:31:27;96271.44;;;14.70;63.36
15444;BME280;7822;48.146;11.576;2023-01-25T09:33:56;96276.66;;;14.70;63.60
15444;BME280;7822;48.146;11.576;2023-01-25T09:36:24;96283.56;;;14.71;63.54
15444;BME280;7822;48.146;11.576;2023-01-25T09:38:52;96266.19;;;14.70;63.61
15444;BME280;7822;48.146;11.576;2023-01-25T09:41:27;96277.50;;;14.70;63.75
15444;BME280;7822;48.146;11.576;2023-01-25T09:44:09;96273.09;;;14.71;63.42
15444;BME280;7822;48.146;11.576;2023-01-25T09:46:43;96273.09;;;14.71;63.45
15444;BME280;7822;48.146;11.576;2023-01-25T09:49:43;96274.75;;;14.72;63.45
15444;BME280;7822;48.146;11.576;2023-01-25T09:52:29;96267.88;;;14.71;63.56
15444;BME280;7822;48.146;11.576;2023-01-25T09:55:11;96267.88;;;14.71;63.42
15444;BME280;7822;48.146;11.576;2023-01-25T09:57:41;96265.25;;;14.71;63.51
15444;BME280;7822;48.146;11.576;2023-01-25T10:00:15;96273.09;;;14.71;63.63
15444;BME280;7822;48.146;11.576;2023-01-25T10:02:48;96264.44;;;14.70;63.41
15444;BME280;7822;48.146;11.576;2023-01-25T10:05:21;96266.09;;;14.71;63.66
15444;BME280;7822;48.146;11.576;2023-01-25T10:07:55;96257.44;;;14.71;63.53
15444;BME280;7822;48.146;11.576;2023-01-25T10:10:29;96247.81;;;14.71;63.57
15444;BME280;7822;48.146;11.576;2023-01-25T10:12:59;96243.53;;;14.70;63.27
15444;BME280;7822;48.146;11.576;2023-01-25T10:15:30;96241.75;;;14.71;63.89
15444;BME280;7822;48.146;11.576;2023-01-25T10:18:12;96242.59;;;14.71;63.71
15444;BME280;7822;48.146;11.576;2023-01-25T10:20:47;96238.31;;;14.70;63.63
15444;BME280;7822;48.146;11.576;2023-01-25T10:26:26;96240.91;;;14.70;63.47
15444;BME280;7822;48.146;11.576;2023-01-25T10:28:59;96243.53;;;14.70;63.74
15444;BME280;7822;48.146;11.576;2023-01-25T10:31:35;96236.53;;;14.71;63.75
15444;BME280;7822;48.146;11.576;2023-01-25T10:34:15;96232.16;;;14.71;63.58
15444;BME280;7822;48.146;11.576;2023-01-25T10:36:46;96226.09;;;14.71;63.44
15444;BME280;7822;48.146;11.576;2023-01-25T10:39:16;96220.03;;;14.70;63.58
15444;BME280;7822;48.146;11.576;2023-01-25T10:41:47;96219.09;;;14.71;63.80
15444;BME280;7822;48.146;11.576;2023-01-25T10:44:17;96223.47;;;14.71;63.50
15444;BME280;7822;48.146;11.576;2023-01-25T10:46:55;96214.81;;;14.70;63.67
15444;BME280;7822;48.146;11.576;2023-01-25T10:49:28;96214.66;;;14.72;63.43
15444;BME280;7822;48.146;11.576;2023-01-25T10:52:14;96214.66;;;14.72;62.99
15444;BME280;7822;48.146;11.576;2023-01-25T10:54:42;96206.72;;;14.73;63.52
15444;BME280;7822;48.146;11.576;2023-01-25T10:57:13;96207.53;;;14.74;63.48
15444;BME280;7822;48.146;11.576;2023-01-25T10:59:44;96204.00;;;14.75;63.46
15444;BME280;7822;48.146;11.576;2023-01-25T11:02:38;96203.84;;;14.76;63.61
15444;BME280;7822;48.146;11.576;2023-01-25T11:05:29;96193.53;;;14.75;63.49
15444;BME280;7822;48.146;11.576;2023-01-25T11:07:57;96184.88;;;14.74;63.78
15444;BME280;7822;48.146;11.576;2023-01-25T11:10:31;96178.81;;;14.74;63.53
15444;BME280;7822;48.146;11.576;2023-01-25T11:13:19;96178.00;;;14.73;63.47
15444;BME280;7822;48.146;11.576;2023-01-25T11:15:50;96171.81;;;14.74;63.47
15444;BME280;7822;48.146;11.576;2023-01-25T11:18:21;96158.75;;;14.74;63.81
15444;BME280;7822;48.146;11.576;2023-01-25T11:21:05;96157.81;;;14.75;63.24
15444;BME280;7822;48.146;11.576;2023-01-25T11:23:33;96156.00;;;14.76;63.92
15444;BME280;7822;48.146;11.576;2023-01-25T11:26:12;96151.75;;;14.75;63.54
15444;BME280;7822;48.146;11.576;2023-01-25T11:28:41;96155.19;;;14.75;63.68
15444;BME280;7822;48.146;11.576;2023-01-25T11:31:11;96143.06;;;14.74;63.48
15444;BME280;7822;48.146;11.576;2023-01-25T11:33:40;96149.97;;;14.75;63.78
15444;BME280;7822;48.146;11.576;2023-01-25T11:36:16;96144.84;;;14.74;63.82
15444;BME280;7822;48.146;11.576;2023-01-25T11:38:56;96146.53;;;14.75;63.81
15444;BME280;7822;48.146;11.576;2023-01-25T11:41:32;96136.22;;;14.73;63.83
15444;BME280;7822;48.146;11.576;2023-01-25T11:44:22;96134.41;;;14.74;64.03
15444;BME280;7822;48.146;11.576;2023-01-25T11:47:04;96132.75;;;14.73;63.74
15444;BME280;7822;48.146;11.576;2023-01-25T11:49:44;96125.75;;;14.73;63.91
15444;BME280;7822;48.146;11.576;2023-01-25T11:52:26;96119.84;;;14.71;63.92
15444;BME280;7822;48.146;11.576;2023-01-25T11:55:02;96107.59;;;14.72;64.09
15444;BME280;7822;48.146;11.576;2023-01-25T11:57:49;96106.78;;;14.71;64.08
15444;BME280;7822;48.146;11.576;2023-01-25T12:00:28;96102.38;;;14.72;64.15
15444;BME280;7822;48.146;11.576;2023-01-25T12:03:38;96094.53;;;14.72;63.76
15444;BME280;7822;48.146;11.576;2023-01-25T12:06:14;96076.25;;;14.72;63.88
15444;BME280;7822;48.146;11.576;2023-01-25T12:08:57;96076.25;;;14.72;64.25
15444;BME280;7822;48.146;11.576;2023-01-25T12:11:42;96066.63;;;14.72;64.05
15444;BME280;7822;48.146;11.576;2023-01-25T12:14:24;96064.16;;;14.71;63.92
15444;BME280;7822;48.146;11.576;2023-01-25T12:17:06;96057.97;;;14.72;64.14
15444;BME280;7822;48.146;11.576;2023-01-25T12:20:03;96065.69;;;14.73;63.83
15444;BME280;7822;48.146;11.576;2023-01-25T12:22:43;96053.44;;;14.74;64.00
15444;BME280;7822;48.146;11.576;2023-01-25T12:25:20;96054.28;;;14.74;64.11
15444;BME280;7822;48.146;11.576;2023-01-25T12:28:02;96042.06;;;14.75;63.74
15444;BME280;7822;48.146;11.576;2023-01-25T12:30:41;96045.59;;;14.74;63.97
15444;BME280;7822;48.146;11.576;2023-01-25T12:33:14;96041.22;;;14.74;64.35
15444;BME280;7822;48.146;11.576;2023-01-25T12:35:46;96036.00;;;14.74;63.95
15444;BME280;7822;48.146;11.576;2023-01-25T12:38:23;96031.59;;;14.75;63.88
15444;BME280;7822;48.146;11.576;2023-01-25T12:40:56;96039.44;;;14.75;64.09
15444;BME280;7822;48.146;11.576;2023-01-25T12:43:30;96029.00;;;14.75;63.85
15444;BME280;7822;48.146;11.576;2023-01-25T12:46:00;96029.00;;;14.75;63.97
15444;BME280;7822;48.146;11.576;2023-01-25T12:48:34;96022.94;;;14.74;63.89
15444;BME280;7822;48.146;11.576;2023-01-25T12:51:07;96015.09;;;14.74;64.04
15444;BME280;7822;48.146;11.576;2023-01-25T12:53:36;96004.66;;;14.74;64.07
15444;BME280;7822;48.146;11.576;2023-01-25T12:56:09;96008.09;;;14.75;64.05
15444;BME280;7822;48.146;11.576;2023-01-25T12:58:42;96009.88;;;14.74;63.96
15444;BME280;7822;48.146;11.576;2023-01-25T13:01:15;96011.66;;;14.74;64.15
15444;BME280;7822;48.146;11.576;2023-01-25T13:03:59;96009.88;;;14.74;64.33
15444;BME280;7822;48.146;11.576;2023-01-25T13:06:35;96009.03;;;14.74;63.85
15444;BME280;7822;48.146;11.576;2023-01-25T13:09:10;96002.88;;;14.75;64.02
15444;BME280;7822;48.146;11.576;2023-01-25T13:11:42;96001.09;;;14.75;64.10
15444;BME280;7822;48.146;11.576;2023-01-25T13:14:30;95989.81;;;14.75;64.18
15444;BME280;7822;48.146;11.576;2023-01-25T13:17:19;95999.28;;;14.76;63.93
15444;BME280;7822;48.146;11.576;2023-01-25T13:19:49;95993.13;;;14.77;64.03
15444;BME280;7822;48.146;11.576;2023-01-25T13:25:27;95984.44;;;14.76;64.20